| time (UTC) | temp F | wind direction | speed MPH | gust MPH | rain 1hr in | rain 24hr in | rain mn in | humidity % | barometer mb |
| 20260510155403 | 50 | 175 | 0.0 | 2.0 | 0.00 | 0.08 | 0.08 | 86 | 1026.7 |
| 20260510154503 | 49 | 163 | 0.0 | 3.0 | 0.00 | 0.08 | 0.08 | 88 | 1026.8 |
| 20260510153603 | 49 | 250 | 1.0 | 2.0 | 0.00 | 0.08 | 0.08 | 89 | 1026.7 |
| 20260510152703 | 48 | 306 | 0.0 | 2.0 | 0.00 | 0.08 | 0.08 | 90 | 1026.8 |
| 20260510151803 | 48 | 306 | 0.0 | 1.0 | 0.00 | 0.08 | 0.08 | 90 | 1026.7 |
| 20260510150903 | 47 | 306 | 0.0 | 1.0 | 0.00 | 0.08 | 0.08 | 91 | 1026.7 |
| 20260510150003 | 47 | 306 | 0.0 | 1.0 | 0.00 | 0.08 | 0.08 | 91 | 1026.8 |
| 20260510145403 | 47 | 0 | 0.0 | 0.0 | 0.00 | 0.08 | 0.08 | 91 | 1026.8 |
| 20260510144503 | 47 | 0 | 0.0 | 0.0 | 0.00 | 0.08 | 0.08 | 91 | 1026.9 |
| 20260510143603 | 47 | 306 | 0.0 | 1.0 | 0.00 | 0.08 | 0.08 | 92 | 1026.8 |
| 20260510142703 | 47 | 306 | 0.0 | 1.0 | 0.00 | 0.08 | 0.08 | 92 | 1026.5 |
| 20260510142016 | 47 | 306 | 0.0 | 1.0 | 0.00 | 0.08 | 0.08 | 92 | 1026.7 |
| 20260510140903 | 47 | 306 | 0.0 | 2.0 | 0.00 | 0.08 | 0.08 | 92 | 1026.7 |
| 20260510140003 | 46 | 306 | 0.0 | 2.0 | 0.00 | 0.08 | 0.08 | 92 | 1026.5 |
| 20260510135403 | 46 | 306 | 0.0 | 2.0 | 0.00 | 0.08 | 0.08 | 92 | 1026.6 |
| 20260510134503 | 47 | 306 | 0.0 | 2.0 | 0.00 | 0.08 | 0.08 | 92 | 1026.5 |
| 20260510133603 | 47 | 306 | 0.0 | 1.0 | 0.00 | 0.08 | 0.08 | 92 | 1026.4 |
| 20260510132916 | 46 | 306 | 0.0 | 1.0 | 0.00 | 0.08 | 0.08 | 92 | 1026.1 |
| 20260510131803 | 46 | 306 | 0.0 | 1.0 | 0.00 | 0.08 | 0.08 | 92 | 1025.8 |
| 20260510130903 | 46 | 306 | 0.0 | 1.0 | 0.00 | 0.08 | 0.08 | 93 | 1025.7 |
| 20260510130003 | 46 | 306 | 1.0 | 2.0 | 0.00 | 0.08 | 0.08 | 92 | 1025.6 |
| 20260510125403 | 46 | 306 | 0.0 | 2.0 | 0.00 | 0.08 | 0.08 | 92 | 1025.5 |
| 20260510124503 | 46 | 306 | 0.0 | 1.0 | 0.00 | 0.08 | 0.08 | 92 | 1025.4 |
| 20260510123603 | 46 | 306 | 0.0 | 1.0 | 0.00 | 0.08 | 0.08 | 92 | 1025.2 |
| 20260510122703 | 46 | 306 | 0.0 | 1.0 | 0.00 | 0.08 | 0.08 | 91 | 1025.2 |
| 20260510121803 | 46 | 306 | 0.0 | 1.0 | 0.00 | 0.08 | 0.08 | 92 | 1025.1 |
| 20260510120903 | 46 | 306 | 0.0 | 1.0 | 0.00 | 0.08 | 0.08 | 91 | 1025.0 |
| 20260510120218 | 46 | 0 | 0.0 | 1.0 | 0.00 | 0.08 | 0.08 | 91 | 1024.9 |
| 20260510115403 | 46 | 0 | 0.0 | 1.0 | 0.00 | 0.08 | 0.08 | 91 | 1024.8 |
| 20260510114503 | 46 | 0 | 0.0 | 0.0 | 0.00 | 0.08 | 0.08 | 92 | 1024.9 |
| 20260510113603 | 46 | 0 | 0.0 | 0.0 | 0.00 | 0.08 | 0.08 | 91 | 1024.8 |
| 20260510112916 | 46 | 0 | 0.0 | 0.0 | 0.00 | 0.08 | 0.08 | 91 | 1024.8 |
| 20260510111803 | 46 | 0 | 0.0 | 0.0 | 0.00 | 0.08 | 0.08 | 91 | 1025.0 |
| 20260510110903 | 46 | 0 | 0.0 | 0.0 | 0.00 | 0.08 | 0.08 | 91 | 1025.1 |
| 20260510110218 | 46 | 0 | 0.0 | 0.0 | 0.00 | 0.08 | 0.08 | 91 | 1025.1 |
| 20260510105403 | 46 | 0 | 0.0 | 0.0 | 0.00 | 0.08 | 0.08 | 91 | 1025.1 |
| 20260510104716 | 46 | 0 | 0.0 | 0.0 | 0.00 | 0.08 | 0.08 | 91 | 1025.0 |
| 20260510103603 | 46 | 0 | 0.0 | 0.0 | 0.00 | 0.08 | 0.08 | 90 | 1025.0 |
| 20260510102703 | 46 | 0 | 0.0 | 0.0 | 0.00 | 0.08 | 0.08 | 90 | 1025.1 |
| 20260510101803 | 46 | 0 | 0.0 | 0.0 | 0.01 | 0.08 | 0.08 | 90 | 1025.0 |
| 20260510100903 | 46 | 0 | 0.0 | 0.0 | 0.01 | 0.08 | 0.08 | 89 | 1025.0 |
| 20260510100003 | 46 | 0 | 0.0 | 0.0 | 0.01 | 0.08 | 0.08 | 88 | 1024.8 |
| 20260510095403 | 46 | 306 | 0.0 | 1.0 | 0.01 | 0.08 | 0.08 | 89 | 1024.9 |
| 20260510094716 | 46 | 0 | 0.0 | 1.0 | 0.01 | 0.08 | 0.08 | 89 | 1025.0 |
| 20260510093815 | 46 | 306 | 0.0 | 2.0 | 0.02 | 0.08 | 0.08 | 88 | 1025.0 |
| 20260510092703 | 46 | 283 | 0.0 | 3.0 | 0.02 | 0.08 | 0.08 | 88 | 1024.9 |
| 20260510092018 | 46 | 270 | 1.0 | 4.0 | 0.01 | 0.07 | 0.07 | 88 | 1024.9 |
| 20260510090903 | 46 | 292 | 1.0 | 4.0 | 0.01 | 0.07 | 0.07 | 87 | 1025.0 |
| 20260510090003 | 47 | 279 | 1.0 | 4.0 | 0.01 | 0.07 | 0.07 | 88 | 1024.6 |
| 20260510085403 | 47 | 288 | 1.0 | 3.0 | 0.01 | 0.07 | 0.07 | 87 | 1024.6 |
| 20260510084503 | 47 | 298 | 1.0 | 3.0 | 0.01 | 0.07 | 0.07 | 87 | 1024.4 |
| 20260510083603 | 47 | 293 | 2.0 | 4.0 | 0.00 | 0.06 | 0.06 | 87 | 1024.1 |
| 20260510082703 | 47 | 285 | 2.0 | 5.0 | 0.00 | 0.06 | 0.06 | 86 | 1024.2 |
| 20260510082018 | 47 | 293 | 2.0 | 5.0 | 0.00 | 0.06 | 0.06 | 86 | 1024.1 |
| 20260510080903 | 47 | 297 | 2.0 | 7.0 | 0.00 | 0.06 | 0.06 | 86 | 1024.0 |
| 20260510080003 | 47 | 290 | 3.0 | 9.0 | 0.00 | 0.06 | 0.06 | 85 | 1023.9 |
| 20260510075403 | 47 | 290 | 4.0 | 10.0 | 0.00 | 0.06 | 0.06 | 84 | 1024.0 |
| 20260510074716 | 48 | 290 | 4.0 | 9.0 | 0.00 | 0.06 | 0.06 | 84 | 1024.1 |
| 20260510073819 | 48 | 303 | 1.0 | 4.0 | 0.00 | 0.06 | 0.06 | 85 | 1024.1 |
| 20260510072918 | 48 | 334 | 1.0 | 3.0 | 0.01 | 0.06 | 0.06 | 85 | 1024.1 |
| 20260510071803 | 48 | 292 | 1.0 | 4.0 | 0.04 | 0.06 | 0.06 | 85 | 1024.0 |
| 20260510070903 | 47 | 292 | 1.0 | 4.0 | 0.05 | 0.06 | 0.06 | 85 | 1024.1 |
| 20260510070003 | 47 | 284 | 2.0 | 9.0 | 0.06 | 0.06 | 0.06 | 85 | 1024.1 |
| 20260510065403 | 47 | 278 | 1.0 | 4.0 | 0.06 | 0.06 | 0.06 | 85 | 1024.0 |
| 20260510064503 | 48 | 298 | 2.0 | 8.0 | 0.06 | 0.06 | 0.06 | 85 | 1023.8 |
| 20260510063603 | 48 | 291 | 3.0 | 9.0 | 0.06 | 0.06 | 0.06 | 84 | 1023.7 |
| 20260510062703 | 48 | 291 | 3.0 | 9.0 | 0.05 | 0.05 | 0.05 | 83 | 1023.4 |
| 20260510061803 | 48 | 296 | 4.0 | 10.0 | 0.02 | 0.02 | 0.02 | 81 | 1023.7 |
| 20260510060903 | 49 | 295 | 4.0 | 11.0 | 0.01 | 0.01 | 0.01 | 79 | 1023.7 |
| 20260510060004 | 49 | 304 | 4.0 | 13.0 | 0.00 | 0.00 | 0.00 | 76 | 1023.4 |
| 20260510055403 | 50 | 303 | 5.0 | 13.0 | 0.00 | 0.00 | 0.00 | 74 | 1023.4 |
| 20260510054503 | 50 | 303 | 5.0 | 11.0 | 0.00 | 0.00 | 0.00 | 72 | 1023.7 |
| 20260510053603 | 50 | 289 | 7.0 | 15.0 | 0.00 | 0.00 | 0.00 | 71 | 1023.6 |
| 20260510052703 | 50 | 286 | 8.0 | 18.0 | 0.00 | 0.00 | 0.00 | 71 | 1022.9 |
| 20260510051803 | 50 | 282 | 9.0 | 18.0 | 0.00 | 0.00 | 0.00 | 70 | 1022.3 |
| 20260510050903 | 51 | 284 | 10.0 | 18.0 | 0.00 | 0.00 | 0.00 | 69 | 1022.4 |
| 20260510050003 | 51 | 293 | 8.0 | 17.0 | 0.00 | 0.00 | 0.00 | 68 | 1022.3 |
| 20260510045403 | 51 | 289 | 8.0 | 17.0 | 0.00 | 0.00 | 0.00 | 68 | 1022.2 |
| 20260510044503 | 52 | 284 | 9.0 | 21.0 | 0.00 | 0.00 | 0.00 | 68 | 1022.2 |
| 20260510043603 | 52 | 282 | 8.0 | 18.0 | 0.00 | 0.00 | 0.00 | 67 | 1022.4 |
| 20260510042703 | 52 | 279 | 9.0 | 18.0 | 0.00 | 0.00 | 0.00 | 67 | 1022.4 |
| 20260510041803 | 52 | 285 | 10.0 | 21.0 | 0.00 | 0.00 | 0.00 | 66 | 1022.3 |
| 20260510040903 | 53 | 296 | 8.0 | 18.0 | 0.00 | 0.00 | 0.00 | 65 | 1022.1 |
| 20260510040219 | 53 | 285 | 9.0 | 18.0 | 0.00 | 0.00 | 0.00 | 65 | 1021.8 |
| 20260510035403 | 53 | 285 | 10.0 | 18.0 | 0.00 | 0.00 | 0.00 | 64 | 1021.6 |
| 20260510034718 | 54 | 284 | 9.0 | 21.0 | 0.00 | 0.00 | 0.00 | 63 | 1021.6 |
| 20260510033603 | 54 | 294 | 8.0 | 16.0 | 0.00 | 0.00 | 0.00 | 62 | 1020.9 |
| 20260510032703 | 55 | 289 | 8.0 | 19.0 | 0.00 | 0.00 | 0.00 | 60 | 1020.1 |
| 20260510032016 | 56 | 283 | 8.0 | 22.0 | 0.00 | 0.00 | 0.00 | 58 | 1019.9 |
| 20260510030903 | 57 | 292 | 10.0 | 20.0 | 0.00 | 0.00 | 0.00 | 56 | 1019.2 |
| 20260510030003 | 58 | 287 | 10.0 | 19.0 | 0.00 | 0.00 | 0.00 | 53 | 1018.6 |
| 20260510025403 | 60 | 280 | 9.0 | 19.0 | 0.00 | 0.00 | 0.00 | 50 | 1018.4 |
| 20260510024503 | 61 | 292 | 1.0 | 14.0 | 0.00 | 0.00 | 0.00 | 40 | 1018.0 |
| 20260510023603 | 61 | 0 | 0.0 | 0.0 | 0.00 | 0.00 | 0.00 | 38 | 1016.9 |
| 20260510022703 | 62 | 0 | 0.0 | 0.0 | 0.00 | 0.00 | 0.00 | 38 | 1016.7 |
| 20260510021803 | 62 | 0 | 0.0 | 0.0 | 0.00 | 0.00 | 0.00 | 37 | 1016.4 |
| 20260510020903 | 62 | 0 | 0.0 | 1.0 | 0.00 | 0.00 | 0.00 | 37 | 1016.0 |
| 20260510020219 | 63 | 0 | 0.0 | 1.0 | 0.00 | 0.00 | 0.00 | 37 | 1015.9 |
| 20260510015403 | 64 | 96 | 0.0 | 1.0 | 0.00 | 0.00 | 0.00 | 36 | 1015.6 |
| 20260510014503 | 64 | 96 | 0.0 | 1.0 | 0.00 | 0.00 | 0.00 | 35 | 1015.5 |
| 20260510013603 | 65 | 96 | 0.0 | 1.0 | 0.00 | 0.00 | 0.00 | 34 | 1015.6 |
| 20260510012703 | 66 | 96 | 0.0 | 1.0 | 0.00 | 0.00 | 0.00 | 33 | 1015.7 |
| 20260510011803 | 66 | 96 | 0.0 | 1.0 | 0.00 | 0.00 | 0.00 | 32 | 1015.7 |
| 20260510011119 | 66 | 96 | 0.0 | 1.0 | 0.00 | 0.00 | 0.00 | 31 | 1015.3 |
| 20260510010003 | 67 | 80 | 0.0 | 1.0 | 0.00 | 0.00 | 0.00 | 30 | 1015.2 |
| 20260510005403 | 67 | 0 | 0.0 | 1.0 | 0.00 | 0.00 | 0.00 | 32 | 1015.0 |
| 20260510004503 | 68 | 72 | 0.0 | 1.0 | 0.00 | 0.00 | 0.00 | 31 | 1014.9 |
| 20260510003603 | 68 | 66 | 0.0 | 1.0 | 0.00 | 0.00 | 0.00 | 29 | 1015.0 |
| 20260510002703 | 68 | 63 | 0.0 | 1.0 | 0.00 | 0.00 | 0.00 | 29 | 1014.8 |
| 20260510001803 | 69 | 63 | 1.0 | 3.0 | 0.00 | 0.00 | 0.00 | 30 | 1014.6 |
| 20260510000903 | 69 | 74 | 1.0 | 3.0 | 0.00 | 0.00 | 0.00 | 27 | 1014.4 |
| 20260510000003 | 69 | 73 | 1.0 | 3.0 | 0.00 | 0.00 | 0.00 | 27 | 1014.3 |
| 20260509235403 | 69 | 68 | 1.0 | 6.0 | 0.00 | 0.00 | 0.00 | 28 | 1014.5 |
| 20260509234503 | 69 | 41 | 2.0 | 8.0 | 0.00 | 0.00 | 0.00 | 26 | 1014.4 |
| 20260509233603 | 69 | 70 | 3.0 | 6.0 | 0.00 | 0.00 | 0.00 | 27 | 1014.5 |
| 20260509232703 | 69 | 66 | 3.0 | 8.0 | 0.00 | 0.00 | 0.00 | 30 | 1014.7 |
| 20260509231803 | 69 | 71 | 3.0 | 8.0 | 0.00 | 0.00 | 0.00 | 29 | 1014.4 |
| 20260509231118 | 69 | 75 | 4.0 | 9.0 | 0.00 | 0.00 | 0.00 | 29 | 1014.5 |
| 20260509230003 | 70 | 75 | 3.0 | 8.0 | 0.00 | 0.00 | 0.00 | 28 | 1014.4 |
| 20260509225403 | 71 | 73 | 3.0 | 8.0 | 0.00 | 0.00 | 0.00 | 27 | 1014.2 |
| 20260509224503 | 71 | 73 | 2.0 | 7.0 | 0.00 | 0.00 | 0.00 | 27 | 1014.1 |
| 20260509223603 | 71 | 68 | 4.0 | 11.0 | 0.00 | 0.00 | 0.00 | 26 | 1013.9 |
| 20260509222703 | 72 | 72 | 4.0 | 10.0 | 0.00 | 0.00 | 0.00 | 25 | 1014.0 |
| 20260509221803 | 73 | 67 | 4.0 | 10.0 | 0.00 | 0.00 | 0.00 | 24 | 1013.7 |
| 20260509221118 | 73 | 72 | 4.0 | 10.0 | 0.00 | 0.00 | 0.00 | 24 | 1013.4 |
| 20260509220217 | 74 | 72 | 3.0 | 9.0 | 0.00 | 0.00 | 0.00 | 24 | 1013.5 |
| 20260509215403 | 74 | 72 | 4.0 | 12.0 | 0.00 | 0.00 | 0.00 | 24 | 1013.5 |
| 20260509214503 | 74 | 79 | 4.0 | 8.0 | 0.00 | 0.00 | 0.00 | 24 | 1013.2 |
| 20260509213603 | 73 | 81 | 2.0 | 8.0 | 0.00 | 0.00 | 0.00 | 24 | 1013.5 |
| 20260509212703 | 73 | 76 | 2.0 | 8.0 | 0.00 | 0.00 | 0.00 | 22 | 1013.6 |
| 20260509212018 | 73 | 81 | 1.0 | 4.0 | 0.00 | 0.00 | 0.00 | 21 | 1013.6 |
| 20260509210903 | 73 | 84 | 1.0 | 3.0 | 0.00 | 0.00 | 0.00 | 21 | 1013.8 |
| 20260509210217 | 74 | 98 | 2.0 | 7.0 | 0.00 | 0.00 | 0.00 | 21 | 1013.8 |
| 20260509205616 | 74 | 91 | 2.0 | 8.0 | 0.00 | 0.00 | 0.00 | 20 | 1013.6 |
| 20260509204503 | 76 | 65 | 2.0 | 9.0 | 0.00 | 0.00 | 0.00 | 20 | 1013.5 |
| 20260509203819 | 76 | 81 | 2.0 | 6.0 | 0.00 | 0.00 | 0.00 | 19 | 1013.5 |
| 20260509202703 | 76 | 97 | 1.0 | 2.0 | 0.00 | 0.00 | 0.00 | 21 | 1013.7 |
| 20260509201803 | 76 | 80 | 1.0 | 3.0 | 0.00 | 0.00 | 0.00 | 19 | 1014.0 |
| 20260509200903 | 76 | 139 | 0.0 | 3.0 | 0.00 | 0.00 | 0.00 | 19 | 1014.1 |
| 20260509200003 | 76 | 99 | 1.0 | 3.0 | 0.00 | 0.00 | 0.00 | 19 | 1014.0 |
| 20260509195403 | 76 | 116 | 1.0 | 3.0 | 0.00 | 0.00 | 0.00 | 20 | 1013.9 |
| 20260509194503 | 76 | 246 | 2.0 | 6.0 | 0.00 | 0.00 | 0.00 | 21 | 1014.0 |
| 20260509193603 | 77 | 270 | 2.0 | 8.0 | 0.00 | 0.00 | 0.00 | 18 | 1014.1 |
| 20260509192703 | 77 | 261 | 1.0 | 4.0 | 0.00 | 0.00 | 0.00 | 23 | 1014.0 |
| 20260509191803 | 77 | 231 | 1.0 | 4.0 | 0.00 | 0.00 | 0.00 | 21 | 1014.3 |
| 20260509191116 | 76 | 244 | 2.0 | 6.0 | 0.00 | 0.00 | 0.00 | 20 | 1014.4 |
| 20260509190216 | 76 | 268 | 2.0 | 4.0 | 0.00 | 0.00 | 0.00 | 20 | 1014.3 |
| 20260509185403 | 76 | 258 | 3.0 | 9.0 | 0.00 | 0.00 | 0.00 | 23 | 1014.5 |
| 20260509184503 | 76 | 272 | 2.0 | 7.0 | 0.00 | 0.00 | 0.00 | 22 | 1014.3 |
| 20260509183603 | 76 | 282 | 4.0 | 10.0 | 0.00 | 0.00 | 0.00 | 24 | 1014.4 |
| 20260509182703 | 76 | 277 | 3.0 | 11.0 | 0.00 | 0.00 | 0.00 | 19 | 1014.5 |
| 20260509181803 | 77 | 290 | 2.0 | 9.0 | 0.00 | 0.00 | 0.00 | 20 | 1014.7 |
| 20260509181116 | 77 | 164 | 1.0 | 4.0 | 0.00 | 0.00 | 0.00 | 23 | 1014.8 |
| 20260509180003 | 77 | 60 | 1.0 | 2.0 | 0.00 | 0.00 | 0.00 | 19 | 1014.8 |
| 20260509175403 | 76 | 326 | 1.0 | 3.0 | 0.00 | 0.00 | 0.00 | 21 | 1014.9 |
| 20260509174503 | 76 | 170 | 1.0 | 4.0 | 0.00 | 0.00 | 0.00 | 22 | 1015.0 |
| 20260509173818 | 74 | 242 | 1.0 | 4.0 | 0.00 | 0.00 | 0.00 | 27 | 1015.2 |
| 20260509172703 | 74 | 90 | 2.0 | 6.0 | 0.00 | 0.00 | 0.00 | 22 | 1015.2 |
| 20260509171803 | 73 | 301 | 2.0 | 6.0 | 0.00 | 0.00 | 0.00 | 21 | 1015.3 |
| 20260509170903 | 73 | 341 | 1.0 | 4.0 | 0.00 | 0.00 | 0.00 | 24 | 1015.5 |
| 20260509170003 | 71 | 268 | 2.0 | 5.0 | 0.00 | 0.00 | 0.00 | 22 | 1015.4 |
| 20260509165619 | 71 | 275 | 2.0 | 5.0 | 0.00 | 0.00 | 0.00 | 24 | 1015.6 |
| 20260509164503 | 71 | 284 | 2.0 | 6.0 | 0.00 | 0.00 | 0.00 | 25 | 1015.6 |
| 20260509163817 | 71 | 307 | 1.0 | 5.0 | 0.00 | 0.00 | 0.00 | 23 | 1015.6 |
| 20260509162703 | 70 | 356 | 1.0 | 5.0 | 0.00 | 0.00 | 0.00 | 24 | 1015.6 |
| 20260509161803 | 68 | 283 | 2.0 | 8.0 | 0.00 | 0.00 | 0.00 | 28 | 1015.5 |
| 20260509160903 | 67 | 274 | 2.0 | 6.0 | 0.00 | 0.00 | 0.00 | 28 | 1015.6 |
| 20260509160003 | 67 | 303 | 1.0 | 6.0 | 0.00 | 0.00 | 0.00 | 29 | 1015.7 |